CheckWX is a tool to help pilots better visualize weather data.  It is not intended as a substitute for an official pre-flight weather briefing.

12:32:46 UTC

EHAK METAR
A12-cpp Sea
A12-cpp Sea, The Netherlands
Current

38 mins ago

EHAK 161155Z AUTO 33010KT 4500 BR SCT001/// BKN003/// OVC004/// 13/13 Q1017 W///H///
Observed
Jul-16 @ 11:55 UTC
Wind
  • 330° at 10 KTS
Visibility
4,500 meters
Flight Rules
LIFR
Conditions
Mist
Cloud Levels
  • Scattered at 100' AGL
  • Broken at 300' AGL
  • Overcast at 400' AGL
Temperature
13°C / 55°F
Dewpoint
13°C / 55°F
Humidity
100%
Altimeter
30.03" Hg
Pressure
1016.92 hPa
Previous

1 hour ago

EHAK 161125Z AUTO 32010KT 2800 BR FEW001/// SCT003/// BKN004/// 13/13 Q1018 W///H///
Observed
Jul-16 @ 11:25 UTC
Wind
  • 320° at 10 KTS
Visibility
2,800 meters
Flight Rules
LIFR
Conditions
Mist
Cloud Levels
  • Few at 100' AGL
  • Scattered at 300' AGL
  • Broken at 400' AGL
Temperature
13°C / 55°F
Dewpoint
13°C / 55°F
Humidity
100%
Altimeter
30.06" Hg
Pressure
1017.92 hPa
Previous

2 hours ago

EHAK 161055Z AUTO 33012KT 9999 FEW005/// BKN006/// BKN007/// 14/13 Q1017 W///H///
Observed
Jul-16 @ 10:55 UTC
Wind
  • 330° at 12 KTS
Visibility
10,000+ meters
Flight Rules
IFR
Cloud Levels
  • Few at 500' AGL
  • Broken at 600' AGL
  • Broken at 700' AGL
Temperature
14°C / 57°F
Dewpoint
13°C / 55°F
Humidity
94%
Altimeter
30.03" Hg
Pressure
1016.92 hPa